BAW926C EDDF-EDDP
Flight info
| Callsign | BAW926C |
|---|---|
| Flight time | 0h 55m |
| Altitude | 23000 |
| Route | SULUS4D/07C SULUS Z12 LASGA/N0374F220 T953 VOCIM/N0369F210 T954 GOXLI GOXLI1R |
| Aircraft | A20N/M-SDGHIJ1LRWXY/SB1 |
Departure
| Time | 2026-05-07 20:19 |
|---|---|
| Airport | Frankfurt Main Airport (EDDF) |
Arrival
| Time | 2026-05-07 21:14 |
|---|---|
| Airport | Leipzig/Halle Airport (EDDP) |
| Time | Latitude | Longitude | Altitude | Speed | Heading |
|---|---|---|---|---|---|
| 2026-05-07 18:58 | 50.04905 | 8.59108 | 347 ft | 0 kts | 340° |
| 2026-05-07 19:51 | 50.04892 | 8.59115 | 358 ft | 4 kts | 338° |
| 2026-05-07 19:52 | 50.04867 | 8.59132 | 356 ft | 4 kts | 332° |
| 2026-05-07 19:52 | 50.04844 | 8.59154 | 359 ft | 4 kts | 319° |
| 2026-05-07 19:52 | 50.04829 | 8.59184 | 358 ft | 4 kts | 268° |
| 2026-05-07 19:52 | 50.04830 | 8.59200 | 348 ft | 1 kts | 250° |
| 2026-05-07 20:03 | 50.04827 | 8.59185 | 348 ft | 3 kts | 250° |
| 2026-05-07 20:04 | 50.04814 | 8.59132 | 356 ft | 8 kts | 249° |
| 2026-05-07 20:04 | 50.04787 | 8.59021 | 355 ft | 15 kts | 249° |
| 2026-05-07 20:04 | 50.04743 | 8.58840 | 353 ft | 20 kts | 248° |
| 2026-05-07 20:04 | 50.04685 | 8.58625 | 356 ft | 23 kts | 249° |
| 2026-05-07 20:05 | 50.04629 | 8.58384 | 351 ft | 24 kts | 249° |
| 2026-05-07 20:05 | 50.04569 | 8.58131 | 350 ft | 26 kts | 250° |
| 2026-05-07 20:05 | 50.04515 | 8.57912 | 351 ft | 17 kts | 249° |
| 2026-05-07 20:05 | 50.04473 | 8.57726 | 351 ft | 19 kts | 251° |
| 2026-05-07 20:06 | 50.04423 | 8.57520 | 353 ft | 21 kts | 248° |
| 2026-05-07 20:06 | 50.04369 | 8.57296 | 357 ft | 23 kts | 250° |
| 2026-05-07 20:06 | 50.04331 | 8.57132 | 348 ft | 24 kts | 250° |
| 2026-05-07 20:06 | 50.04269 | 8.56877 | 352 ft | 26 kts | 250° |
| 2026-05-07 20:07 | 50.04183 | 8.56516 | 355 ft | 28 kts | 250° |
| 2026-05-07 20:07 | 50.04115 | 8.56229 | 353 ft | 29 kts | 250° |
| 2026-05-07 20:07 | 50.04076 | 8.56066 | 355 ft | 22 kts | 249° |
| 2026-05-07 20:07 | 50.04003 | 8.55763 | 355 ft | 24 kts | 250° |
| 2026-05-07 20:08 | 50.03964 | 8.55598 | 357 ft | 25 kts | 250° |
| 2026-05-07 20:08 | 50.03903 | 8.55340 | 354 ft | 26 kts | 249° |
| 2026-05-07 20:08 | 50.03837 | 8.55071 | 348 ft | 22 kts | 250° |
| 2026-05-07 20:08 | 50.03800 | 8.54919 | 354 ft | 16 kts | 247° |
| 2026-05-07 20:09 | 50.03762 | 8.54747 | 352 ft | 18 kts | 251° |
| 2026-05-07 20:09 | 50.03715 | 8.54554 | 351 ft | 20 kts | 249° |
| 2026-05-07 20:09 | 50.03663 | 8.54340 | 356 ft | 22 kts | 251° |
| 2026-05-07 20:10 | 50.03549 | 8.53860 | 357 ft | 25 kts | 250° |
| 2026-05-07 20:10 | 50.03486 | 8.53595 | 351 ft | 23 kts | 249° |
| 2026-05-07 20:10 | 50.03451 | 8.53444 | 350 ft | 15 kts | 250° |
| 2026-05-07 20:10 | 50.03412 | 8.53279 | 353 ft | 18 kts | 249° |
| 2026-05-07 20:11 | 50.03366 | 8.53094 | 350 ft | 19 kts | 249° |
| 2026-05-07 20:11 | 50.03320 | 8.52902 | 353 ft | 16 kts | 250° |
| 2026-05-07 20:11 | 50.03289 | 8.52767 | 357 ft | 6 kts | 249° |
| 2026-05-07 20:11 | 50.03289 | 8.52764 | 356 ft | 0 kts | 248° |
| 2026-05-07 20:17 | 50.03287 | 8.52756 | 355 ft | 3 kts | 248° |
| 2026-05-07 20:17 | 50.03256 | 8.52669 | 353 ft | 13 kts | 232° |
| 2026-05-07 20:17 | 50.03169 | 8.52598 | 346 ft | 14 kts | 187° |
| 2026-05-07 20:18 | 50.03148 | 8.52597 | 349 ft | 0 kts | 181° |
| 2026-05-07 20:18 | 50.03146 | 8.52597 | 348 ft | 2 kts | 181° |
| 2026-05-07 20:18 | 50.02985 | 8.52600 | 350 ft | 50 kts | 178° |
| 2026-05-07 20:18 | 50.02373 | 8.52607 | 347 ft | 126 kts | 180° |
| 2026-05-07 20:19 | 50.01285 | 8.52619 | 453 ft | 176 kts | 179° |
| 2026-05-07 20:19 | 50.00096 | 8.52607 | 1384 ft | 166 kts | 178° |
| 2026-05-07 20:19 | 49.98946 | 8.52590 | 2298 ft | 165 kts | 179° |
| 2026-05-07 20:19 | 49.97779 | 8.52571 | 3015 ft | 173 kts | 180° |
| 2026-05-07 20:20 | 49.96526 | 8.52612 | 3572 ft | 189 kts | 175° |
| 2026-05-07 20:20 | 49.95135 | 8.52815 | 4012 ft | 213 kts | 174° |
| 2026-05-07 20:20 | 49.93587 | 8.53039 | 4561 ft | 232 kts | 175° |
| 2026-05-07 20:20 | 49.91937 | 8.53223 | 4919 ft | 240 kts | 176° |
| 2026-05-07 20:21 | 49.90277 | 8.53362 | 4993 ft | 240 kts | 178° |
| 2026-05-07 20:21 | 49.88599 | 8.53479 | 4998 ft | 240 kts | 178° |
| 2026-05-07 20:21 | 49.86930 | 8.53586 | 4995 ft | 240 kts | 178° |
| 2026-05-07 20:21 | 49.85262 | 8.53691 | 4994 ft | 240 kts | 178° |
| 2026-05-07 20:22 | 49.83587 | 8.53798 | 5074 ft | 243 kts | 178° |
| 2026-05-07 20:22 | 49.81893 | 8.53908 | 5616 ft | 245 kts | 178° |
| 2026-05-07 20:22 | 49.80218 | 8.54196 | 6647 ft | 242 kts | 162° |
| 2026-05-07 20:22 | 49.78787 | 8.55558 | 7513 ft | 247 kts | 132° |
| 2026-05-07 20:23 | 49.77961 | 8.57880 | 8312 ft | 252 kts | 102° |
| 2026-05-07 20:23 | 49.77782 | 8.60611 | 9033 ft | 264 kts | 92° |
| 2026-05-07 20:23 | 49.77738 | 8.63563 | 9456 ft | 286 kts | 90° |
| 2026-05-07 20:23 | 49.77700 | 8.66705 | 10170 ft | 295 kts | 91° |
| 2026-05-07 20:24 | 49.77634 | 8.69965 | 10662 ft | 314 kts | 92° |
| 2026-05-07 20:24 | 49.77535 | 8.73467 | 10946 ft | 337 kts | 92° |
| 2026-05-07 20:24 | 49.77411 | 8.77166 | 11499 ft | 348 kts | 93° |
| 2026-05-07 20:24 | 49.77276 | 8.80924 | 12310 ft | 352 kts | 93° |
| 2026-05-07 20:25 | 49.77138 | 8.84725 | 13096 ft | 357 kts | 93° |
| 2026-05-07 20:25 | 49.76996 | 8.88575 | 13864 ft | 361 kts | 93° |
| 2026-05-07 20:25 | 49.76852 | 8.92477 | 14563 ft | 365 kts | 93° |
| 2026-05-07 20:25 | 49.76705 | 8.96415 | 15259 ft | 369 kts | 93° |
| 2026-05-07 20:26 | 49.76556 | 9.00406 | 15935 ft | 373 kts | 93° |
| 2026-05-07 20:26 | 49.76404 | 9.04441 | 16605 ft | 378 kts | 93° |
| 2026-05-07 20:26 | 49.76209 | 9.08513 | 17256 ft | 382 kts | 97° |
| 2026-05-07 20:26 | 49.75695 | 9.12560 | 17929 ft | 386 kts | 104° |
| 2026-05-07 20:27 | 49.75034 | 9.16602 | 18541 ft | 390 kts | 104° |
| 2026-05-07 20:27 | 49.74374 | 9.20691 | 19137 ft | 393 kts | 104° |
| 2026-05-07 20:27 | 49.73708 | 9.24811 | 19723 ft | 396 kts | 104° |
| 2026-05-07 20:27 | 49.73035 | 9.28956 | 20310 ft | 399 kts | 104° |
| 2026-05-07 20:28 | 49.72355 | 9.33135 | 20894 ft | 403 kts | 104° |
| 2026-05-07 20:28 | 49.71668 | 9.37345 | 21464 ft | 406 kts | 104° |
| 2026-05-07 20:28 | 49.70973 | 9.41593 | 22027 ft | 409 kts | 104° |
| 2026-05-07 20:28 | 49.70272 | 9.45866 | 22600 ft | 412 kts | 104° |
| 2026-05-07 20:29 | 49.69564 | 9.50179 | 22979 ft | 416 kts | 104° |
| 2026-05-07 20:29 | 49.68848 | 9.54520 | 23067 ft | 416 kts | 104° |
| 2026-05-07 20:29 | 49.68134 | 9.58846 | 23067 ft | 416 kts | 104° |
| 2026-05-07 20:29 | 49.67489 | 9.63188 | 23069 ft | 415 kts | 98° |
| 2026-05-07 20:30 | 49.67336 | 9.67642 | 23072 ft | 415 kts | 86° |
| 2026-05-07 20:30 | 49.67748 | 9.72038 | 23070 ft | 414 kts | 75° |
| 2026-05-07 20:30 | 49.68515 | 9.76328 | 23069 ft | 414 kts | 73° |
| 2026-05-07 20:30 | 49.69280 | 9.80611 | 23077 ft | 414 kts | 73° |
| 2026-05-07 20:31 | 49.70040 | 9.84905 | 23073 ft | 414 kts | 74° |
| 2026-05-07 20:31 | 49.70795 | 9.89193 | 23077 ft | 414 kts | 73° |
| 2026-05-07 20:31 | 49.71746 | 9.93383 | 23072 ft | 413 kts | 65° |
| 2026-05-07 20:31 | 49.73053 | 9.97322 | 23077 ft | 412 kts | 57° |
| 2026-05-07 20:32 | 49.74643 | 10.00927 | 23078 ft | 411 kts | 52° |
| 2026-05-07 20:32 | 49.76338 | 10.04559 | 23081 ft | 411 kts | 53° |
| 2026-05-07 20:32 | 49.77978 | 10.08105 | 23078 ft | 411 kts | 53° |
| 2026-05-07 20:32 | 49.79659 | 10.11753 | 23084 ft | 411 kts | 53° |
| 2026-05-07 20:33 | 49.81295 | 10.15306 | 23079 ft | 411 kts | 53° |
| 2026-05-07 20:33 | 49.82953 | 10.18912 | 23084 ft | 411 kts | 53° |
| 2026-05-07 20:33 | 49.84611 | 10.22519 | 23083 ft | 411 kts | 53° |
| 2026-05-07 20:33 | 49.86269 | 10.26130 | 23081 ft | 411 kts | 53° |
| 2026-05-07 20:34 | 49.87922 | 10.29737 | 23079 ft | 411 kts | 53° |
| 2026-05-07 20:34 | 49.89575 | 10.33347 | 23082 ft | 411 kts | 53° |
| 2026-05-07 20:34 | 49.91231 | 10.36968 | 23080 ft | 411 kts | 53° |
| 2026-05-07 20:34 | 49.92885 | 10.40590 | 23082 ft | 411 kts | 53° |
| 2026-05-07 20:35 | 49.94533 | 10.44205 | 23087 ft | 411 kts | 53° |
| 2026-05-07 20:35 | 49.96184 | 10.47830 | 23080 ft | 411 kts | 53° |
| 2026-05-07 20:35 | 49.97832 | 10.51453 | 23081 ft | 411 kts | 54° |
| 2026-05-07 20:35 | 49.99483 | 10.55090 | 23077 ft | 411 kts | 54° |
| 2026-05-07 20:36 | 50.01129 | 10.58720 | 23080 ft | 411 kts | 54° |
| 2026-05-07 20:36 | 50.02773 | 10.62349 | 23076 ft | 411 kts | 54° |
| 2026-05-07 20:36 | 50.04418 | 10.65988 | 23078 ft | 411 kts | 54° |
| 2026-05-07 20:36 | 50.06063 | 10.69630 | 23078 ft | 411 kts | 54° |
| 2026-05-07 20:37 | 50.07742 | 10.73224 | 23077 ft | 411 kts | 50° |
| 2026-05-07 20:37 | 50.09636 | 10.76555 | 23077 ft | 410 kts | 47° |
| 2026-05-07 20:37 | 50.11546 | 10.79856 | 23074 ft | 410 kts | 47° |
| 2026-05-07 20:37 | 50.13450 | 10.83163 | 23079 ft | 410 kts | 47° |
| 2026-05-07 20:38 | 50.15352 | 10.86475 | 23076 ft | 410 kts | 47° |
| 2026-05-07 20:38 | 50.17255 | 10.89794 | 23075 ft | 410 kts | 47° |
| 2026-05-07 20:38 | 50.19151 | 10.93106 | 23077 ft | 410 kts | 47° |
| 2026-05-07 20:38 | 50.21050 | 10.96427 | 23074 ft | 410 kts | 47° |
| 2026-05-07 20:39 | 50.22949 | 10.99747 | 23076 ft | 409 kts | 47° |
| 2026-05-07 20:39 | 50.24843 | 11.03062 | 23078 ft | 409 kts | 47° |
| 2026-05-07 20:39 | 50.26736 | 11.06381 | 23076 ft | 409 kts | 47° |
| 2026-05-07 20:39 | 50.28629 | 11.09705 | 23079 ft | 409 kts | 47° |
| 2026-05-07 20:40 | 50.30517 | 11.13022 | 23079 ft | 409 kts | 47° |
| 2026-05-07 20:40 | 50.32407 | 11.16348 | 23077 ft | 409 kts | 47° |
| 2026-05-07 20:40 | 50.34434 | 11.19445 | 23080 ft | 407 kts | 35° |
| 2026-05-07 20:40 | 50.36886 | 11.21593 | 23083 ft | 404 kts | 19° |
| 2026-05-07 20:41 | 50.39607 | 11.22597 | 23080 ft | 402 kts | 3° |
| 2026-05-07 20:41 | 50.42392 | 11.22560 | 23079 ft | 400 kts | 355° |
| 2026-05-07 20:41 | 50.45175 | 11.22291 | 23080 ft | 400 kts | 355° |
| 2026-05-07 20:41 | 50.47951 | 11.22009 | 23082 ft | 400 kts | 355° |
| 2026-05-07 20:42 | 50.50729 | 11.21752 | 23082 ft | 400 kts | 355° |
| 2026-05-07 20:42 | 50.53512 | 11.21519 | 23083 ft | 400 kts | 355° |
| 2026-05-07 20:42 | 50.56290 | 11.21303 | 23088 ft | 400 kts | 356° |
| 2026-05-07 20:42 | 50.59075 | 11.21094 | 23088 ft | 400 kts | 356° |
| 2026-05-07 20:43 | 50.61859 | 11.21119 | 23091 ft | 401 kts | 4° |
| 2026-05-07 20:43 | 50.64611 | 11.21929 | 23090 ft | 403 kts | 15° |
| 2026-05-07 20:43 | 50.67230 | 11.23507 | 23056 ft | 404 kts | 24° |
| 2026-05-07 20:43 | 50.69771 | 11.25372 | 22773 ft | 401 kts | 23° |
| 2026-05-07 20:44 | 50.72296 | 11.27214 | 22283 ft | 399 kts | 23° |
| 2026-05-07 20:44 | 50.74803 | 11.29039 | 21730 ft | 395 kts | 23° |
| 2026-05-07 20:44 | 50.77278 | 11.30845 | 20982 ft | 390 kts | 23° |
| 2026-05-07 20:44 | 50.79696 | 11.32611 | 20172 ft | 386 kts | 23° |
| 2026-05-07 20:45 | 50.82120 | 11.34385 | 19379 ft | 382 kts | 23° |
| 2026-05-07 20:45 | 50.84516 | 11.36141 | 18620 ft | 378 kts | 24° |
| 2026-05-07 20:45 | 50.86888 | 11.37881 | 17808 ft | 373 kts | 24° |
| 2026-05-07 20:45 | 50.89230 | 11.39601 | 17022 ft | 368 kts | 24° |
| 2026-05-07 20:46 | 50.91544 | 11.41303 | 16224 ft | 364 kts | 24° |
| 2026-05-07 20:46 | 50.93856 | 11.43005 | 15460 ft | 360 kts | 24° |
| 2026-05-07 20:46 | 50.96115 | 11.44670 | 14723 ft | 356 kts | 24° |
| 2026-05-07 20:46 | 50.98346 | 11.46316 | 14003 ft | 352 kts | 24° |
| 2026-05-07 20:47 | 51.00555 | 11.47948 | 13248 ft | 347 kts | 24° |
| 2026-05-07 20:47 | 51.02703 | 11.49537 | 12521 ft | 343 kts | 24° |
| 2026-05-07 20:47 | 51.04847 | 11.51124 | 11811 ft | 338 kts | 24° |
| 2026-05-07 20:47 | 51.06957 | 11.52687 | 11309 ft | 330 kts | 24° |
| 2026-05-07 20:48 | 51.08994 | 11.54424 | 11150 ft | 336 kts | 36° |
| 2026-05-07 20:48 | 51.10581 | 11.57139 | 11109 ft | 338 kts | 57° |
| 2026-05-07 20:48 | 51.11434 | 11.60621 | 11103 ft | 341 kts | 79° |
| 2026-05-07 20:48 | 51.11672 | 11.64380 | 11102 ft | 342 kts | 84° |
| 2026-05-07 20:49 | 51.11860 | 11.68150 | 11102 ft | 342 kts | 84° |
| 2026-05-07 20:49 | 51.12045 | 11.71915 | 11105 ft | 341 kts | 84° |
| 2026-05-07 20:49 | 51.12232 | 11.75680 | 11102 ft | 341 kts | 84° |
| 2026-05-07 20:49 | 51.12421 | 11.79447 | 11102 ft | 341 kts | 84° |
| 2026-05-07 20:50 | 51.12611 | 11.83216 | 11099 ft | 342 kts | 84° |
| 2026-05-07 20:50 | 51.12800 | 11.86974 | 11027 ft | 340 kts | 84° |
| 2026-05-07 20:50 | 51.12967 | 11.90314 | 10683 ft | 337 kts | 84° |
| 2026-05-07 20:50 | 51.13152 | 11.94020 | 10125 ft | 334 kts | 84° |
| 2026-05-07 20:51 | 51.13333 | 11.97686 | 9590 ft | 326 kts | 84° |
| 2026-05-07 20:51 | 51.13503 | 12.01180 | 9394 ft | 307 kts | 84° |
| 2026-05-07 20:51 | 51.13663 | 12.04467 | 9185 ft | 289 kts | 84° |
| 2026-05-07 20:51 | 51.13816 | 12.07616 | 8710 ft | 283 kts | 84° |
| 2026-05-07 20:52 | 51.13968 | 12.10721 | 8165 ft | 280 kts | 84° |
| 2026-05-07 20:52 | 51.14117 | 12.13792 | 7625 ft | 277 kts | 85° |
| 2026-05-07 20:52 | 51.14214 | 12.15811 | 7272 ft | 275 kts | 85° |
| 2026-05-07 20:52 | 51.14359 | 12.18828 | 6758 ft | 272 kts | 85° |
| 2026-05-07 20:53 | 51.14500 | 12.21815 | 6232 ft | 269 kts | 85° |
| 2026-05-07 20:53 | 51.14640 | 12.24770 | 5671 ft | 267 kts | 85° |
| 2026-05-07 20:53 | 51.14777 | 12.27705 | 5197 ft | 263 kts | 85° |
| 2026-05-07 20:53 | 51.14916 | 12.30678 | 5054 ft | 283 kts | 85° |
| 2026-05-07 20:54 | 51.15059 | 12.33782 | 5001 ft | 274 kts | 85° |
| 2026-05-07 20:54 | 51.15194 | 12.36728 | 4995 ft | 261 kts | 85° |
| 2026-05-07 20:54 | 51.15328 | 12.39650 | 5007 ft | 267 kts | 85° |
| 2026-05-07 20:54 | 51.15461 | 12.42581 | 5005 ft | 265 kts | 85° |
| 2026-05-07 20:55 | 51.15634 | 12.45502 | 4994 ft | 265 kts | 77° |
| 2026-05-07 20:55 | 51.16405 | 12.48126 | 4992 ft | 263 kts | 50° |
| 2026-05-07 20:55 | 51.17839 | 12.49883 | 4987 ft | 263 kts | 22° |
| 2026-05-07 20:55 | 51.19621 | 12.50399 | 5004 ft | 263 kts | 357° |
| 2026-05-07 20:56 | 51.21447 | 12.50191 | 4999 ft | 263 kts | 355° |
| 2026-05-07 20:56 | 51.23230 | 12.49609 | 4992 ft | 263 kts | 336° |
| 2026-05-07 20:56 | 51.24679 | 12.47859 | 4993 ft | 265 kts | 309° |
| 2026-05-07 20:56 | 51.25466 | 12.45227 | 4996 ft | 266 kts | 281° |
| 2026-05-07 20:57 | 51.25481 | 12.42276 | 5010 ft | 267 kts | 266° |
| 2026-05-07 20:57 | 51.25333 | 12.39317 | 5003 ft | 267 kts | 265° |
| 2026-05-07 20:57 | 51.25186 | 12.36370 | 5001 ft | 267 kts | 266° |
| 2026-05-07 20:57 | 51.25043 | 12.33413 | 4996 ft | 267 kts | 266° |
| 2026-05-07 20:58 | 51.24907 | 12.30506 | 5003 ft | 267 kts | 266° |
| 2026-05-07 20:58 | 51.24798 | 12.27507 | 4995 ft | 267 kts | 271° |
| 2026-05-07 20:58 | 51.24983 | 12.24613 | 5003 ft | 266 kts | 282° |
| 2026-05-07 20:58 | 51.25445 | 12.21758 | 5000 ft | 266 kts | 285° |
| 2026-05-07 20:59 | 51.25918 | 12.18902 | 4997 ft | 266 kts | 285° |
| 2026-05-07 20:59 | 51.26386 | 12.16007 | 4998 ft | 266 kts | 285° |
| 2026-05-07 20:59 | 51.26838 | 12.13183 | 4999 ft | 266 kts | 285° |
| 2026-05-07 20:59 | 51.27297 | 12.10312 | 4998 ft | 267 kts | 285° |
| 2026-05-07 21:00 | 51.27755 | 12.07444 | 5002 ft | 267 kts | 285° |
| 2026-05-07 21:00 | 51.28213 | 12.04568 | 5020 ft | 267 kts | 284° |
| 2026-05-07 21:00 | 51.28492 | 12.01710 | 5016 ft | 254 kts | 274° |
| 2026-05-07 21:00 | 51.28444 | 11.98977 | 5009 ft | 239 kts | 265° |
| 2026-05-07 21:01 | 51.28299 | 11.96371 | 5014 ft | 238 kts | 266° |
| 2026-05-07 21:01 | 51.28169 | 11.93764 | 5010 ft | 229 kts | 266° |
| 2026-05-07 21:01 | 51.28048 | 11.91269 | 5012 ft | 225 kts | 266° |
| 2026-05-07 21:01 | 51.27929 | 11.88831 | 5019 ft | 216 kts | 266° |
| 2026-05-07 21:02 | 51.27811 | 11.86437 | 5013 ft | 217 kts | 266° |
| 2026-05-07 21:02 | 51.27691 | 11.84035 | 5012 ft | 217 kts | 266° |
| 2026-05-07 21:02 | 51.27571 | 11.81633 | 5018 ft | 217 kts | 266° |
| 2026-05-07 21:02 | 51.27451 | 11.79231 | 5009 ft | 217 kts | 266° |
| 2026-05-07 21:03 | 51.27329 | 11.76828 | 5010 ft | 218 kts | 266° |
| 2026-05-07 21:03 | 51.27207 | 11.74420 | 5012 ft | 217 kts | 266° |
| 2026-05-07 21:03 | 51.27084 | 11.72015 | 5008 ft | 218 kts | 266° |
| 2026-05-07 21:03 | 51.26960 | 11.69605 | 5008 ft | 218 kts | 266° |
| 2026-05-07 21:04 | 51.26844 | 11.67195 | 5013 ft | 217 kts | 266° |
| 2026-05-07 21:04 | 51.26996 | 11.64830 | 5020 ft | 216 kts | 294° |
| 2026-05-07 21:04 | 51.27902 | 11.62977 | 5009 ft | 214 kts | 328° |
| 2026-05-07 21:04 | 51.29250 | 11.62307 | 5006 ft | 196 kts | 4° |
| 2026-05-07 21:05 | 51.30517 | 11.62792 | 5014 ft | 188 kts | 19° |
| 2026-05-07 21:05 | 51.31767 | 11.63443 | 5015 ft | 188 kts | 19° |
| 2026-05-07 21:05 | 51.33017 | 11.64071 | 5007 ft | 188 kts | 18° |
| 2026-05-07 21:05 | 51.34268 | 11.64689 | 5006 ft | 188 kts | 18° |
| 2026-05-07 21:06 | 51.35521 | 11.65306 | 5005 ft | 189 kts | 18° |
| 2026-05-07 21:06 | 51.36773 | 11.65923 | 5008 ft | 189 kts | 18° |
| 2026-05-07 21:06 | 51.38026 | 11.66541 | 5006 ft | 188 kts | 18° |
| 2026-05-07 21:06 | 51.39265 | 11.67210 | 5010 ft | 188 kts | 27° |
| 2026-05-07 21:07 | 51.40219 | 11.68578 | 5016 ft | 186 kts | 58° |
| 2026-05-07 21:07 | 51.40691 | 11.70499 | 5013 ft | 186 kts | 77° |
| 2026-05-07 21:07 | 51.40880 | 11.72550 | 5013 ft | 186 kts | 84° |
| 2026-05-07 21:07 | 51.40976 | 11.74616 | 5009 ft | 187 kts | 86° |
| 2026-05-07 21:08 | 51.41067 | 11.76685 | 5012 ft | 186 kts | 85° |
| 2026-05-07 21:08 | 51.41164 | 11.78792 | 5016 ft | 196 kts | 85° |
| 2026-05-07 21:08 | 51.41264 | 11.80980 | 5008 ft | 196 kts | 85° |
| 2026-05-07 21:08 | 51.41365 | 11.83162 | 5020 ft | 197 kts | 85° |
| 2026-05-07 21:09 | 51.41464 | 11.85316 | 4970 ft | 197 kts | 85° |
| 2026-05-07 21:09 | 51.41565 | 11.87530 | 4751 ft | 197 kts | 85° |
| 2026-05-07 21:09 | 51.41665 | 11.89706 | 4473 ft | 195 kts | 85° |
| 2026-05-07 21:09 | 51.41765 | 11.91871 | 4195 ft | 195 kts | 85° |
| 2026-05-07 21:10 | 51.41863 | 11.93999 | 3936 ft | 194 kts | 85° |
| 2026-05-07 21:10 | 51.41960 | 11.96129 | 3664 ft | 188 kts | 85° |
| 2026-05-07 21:10 | 51.42055 | 11.98185 | 3409 ft | 182 kts | 85° |
| 2026-05-07 21:10 | 51.42145 | 12.00155 | 3159 ft | 170 kts | 85° |
| 2026-05-07 21:11 | 51.42228 | 12.01974 | 2932 ft | 159 kts | 85° |
| 2026-05-07 21:11 | 51.42311 | 12.03765 | 2724 ft | 161 kts | 85° |
| 2026-05-07 21:11 | 51.42474 | 12.07323 | 2284 ft | 160 kts | 84° |
| 2026-05-07 21:12 | 51.42555 | 12.09100 | 2060 ft | 159 kts | 84° |
| 2026-05-07 21:12 | 51.42637 | 12.10867 | 1841 ft | 159 kts | 84° |
| 2026-05-07 21:12 | 51.42715 | 12.12572 | 1607 ft | 148 kts | 84° |
| 2026-05-07 21:12 | 51.42790 | 12.14196 | 1414 ft | 147 kts | 84° |
| 2026-05-07 21:13 | 51.42864 | 12.15826 | 1192 ft | 146 kts | 85° |
| 2026-05-07 21:13 | 51.42938 | 12.17441 | 986 ft | 145 kts | 84° |
| 2026-05-07 21:13 | 51.43011 | 12.19045 | 792 ft | 145 kts | 85° |
| 2026-05-07 21:13 | 51.43078 | 12.20651 | 631 ft | 144 kts | 84° |
| 2026-05-07 21:14 | 51.43164 | 12.22250 | 462 ft | 143 kts | 87° |
| 2026-05-07 21:14 | 51.43229 | 12.23741 | 435 ft | 115 kts | 85° |
| 2026-05-07 21:14 | 51.43270 | 12.24688 | 433 ft | 56 kts | 85° |
| 2026-05-07 21:14 | 51.43290 | 12.25078 | 432 ft | 29 kts | 87° |
| 2026-05-07 21:15 | 51.43259 | 12.25432 | 424 ft | 34 kts | 109° |
| 2026-05-07 21:15 | 51.43195 | 12.25652 | 427 ft | 0 kts | 115° |
| 2026-05-07 21:26 | 51.43191 | 12.25668 | 434 ft | 6 kts | 115° |
| 2026-05-07 21:26 | 51.43156 | 12.25759 | 425 ft | 12 kts | 133° |
| 2026-05-07 21:26 | 51.43068 | 12.25806 | 430 ft | 15 kts | 182° |
| 2026-05-07 21:26 | 51.43005 | 12.25690 | 434 ft | 16 kts | 262° |
| 2026-05-07 21:27 | 51.42998 | 12.25497 | 434 ft | 19 kts | 269° |
| 2026-05-07 21:27 | 51.42982 | 12.25309 | 430 ft | 7 kts | 252° |
| 2026-05-07 21:27 | 51.42979 | 12.25298 | 432 ft | 2 kts | 245° |
| 2026-05-07 21:27 | 51.42983 | 12.25310 | 429 ft | 0 kts | 257° |
| 2026-05-07 21:28 | 51.42977 | 12.25290 | 432 ft | 7 kts | 238° |
| 2026-05-07 21:28 | 51.42911 | 12.25257 | 450 ft | 18 kts | 194° |
| 2026-05-07 21:28 | 51.42877 | 12.25242 | 451 ft | 1 kts | 195° |
| 2026-05-07 21:28 | 51.42863 | 12.25236 | 450 ft | 4 kts | 196° |
| 2026-05-07 21:29 | 51.42755 | 12.25195 | 436 ft | 20 kts | 192° |
| 2026-05-07 21:29 | 51.42617 | 12.25143 | 434 ft | 20 kts | 193° |
| 2026-05-07 21:29 | 51.42491 | 12.25094 | 451 ft | 16 kts | 193° |
| 2026-05-07 21:29 | 51.42371 | 12.25049 | 462 ft | 19 kts | 193° |
| 2026-05-07 21:30 | 51.42226 | 12.24996 | 460 ft | 24 kts | 193° |
| 2026-05-07 21:30 | 51.42083 | 12.24938 | 461 ft | 18 kts | 194° |
| 2026-05-07 21:30 | 51.41952 | 12.24887 | 461 ft | 21 kts | 193° |
| 2026-05-07 21:30 | 51.41792 | 12.24828 | 452 ft | 27 kts | 194° |
| 2026-05-07 21:31 | 51.41714 | 12.24796 | 437 ft | 0 kts | 194° |
| 2026-05-07 21:31 | 51.41707 | 12.24791 | 433 ft | 6 kts | 201° |
| 2026-05-07 21:31 | 51.41673 | 12.24685 | 422 ft | 15 kts | 248° |
| 2026-05-07 21:31 | 51.41655 | 12.24621 | 423 ft | 0 kts | 243° |
| 2026-05-07 21:32 | 51.41648 | 12.24590 | 426 ft | 9 kts | 257° |
| 2026-05-07 21:32 | 51.41650 | 12.24411 | 428 ft | 23 kts | 268° |
| 2026-05-07 21:32 | 51.41636 | 12.24110 | 429 ft | 29 kts | 265° |
| 2026-05-07 21:32 | 51.41621 | 12.23773 | 426 ft | 31 kts | 266° |
| 2026-05-07 21:33 | 51.41604 | 12.23420 | 427 ft | 29 kts | 265° |
| 2026-05-07 21:33 | 51.41606 | 12.23180 | 434 ft | 18 kts | 283° |
| 2026-05-07 21:33 | 51.41643 | 12.22977 | 432 ft | 20 kts | 287° |
| 2026-05-07 21:33 | 51.41683 | 12.22751 | 428 ft | 22 kts | 285° |
| 2026-05-07 21:34 | 51.41721 | 12.22523 | 429 ft | 20 kts | 285° |
| 2026-05-07 21:34 | 51.41752 | 12.22349 | 421 ft | 0 kts | 286° |
| 2026-05-07 21:34 | 51.41755 | 12.22329 | 425 ft | 4 kts | 286° |
| 2026-05-07 21:34 | 51.41765 | 12.22270 | 424 ft | 7 kts | 284° |
| 2026-05-07 21:35 | 51.41781 | 12.22172 | 425 ft | 11 kts | 284° |
| 2026-05-07 21:35 | 51.41801 | 12.22042 | 429 ft | 13 kts | 284° |
| 2026-05-07 21:35 | 51.41821 | 12.21948 | 427 ft | 0 kts | 303° |
| 2026-05-07 21:35 | 51.41825 | 12.21938 | 425 ft | 1 kts | 308° |
| 2026-05-07 21:36 | 51.41865 | 12.21927 | 433 ft | 7 kts | 8° |
| 2026-05-07 21:36 | 51.41903 | 12.21945 | 434 ft | 3 kts | 19° |
| 2026-05-07 21:36 | 51.41919 | 12.21954 | 431 ft | 2 kts | 18° |
| 2026-05-07 21:36 | 51.41926 | 12.21958 | 431 ft | 1 kts | 16° |